sensor_id;sensor_type;location;lat;lon;timestamp;P1;durP1;ratioP1;P2;durP2;ratioP2
549;SDS011;20066;48.764;9.176;2023-07-30T00:00:50;4.03;;;2.50;;
549;SDS011;20066;48.764;9.176;2023-07-30T00:03:18;3.73;;;2.30;;
549;SDS011;20066;48.764;9.176;2023-07-30T00:05:53;2.27;;;1.60;;
549;SDS011;20066;48.764;9.176;2023-07-30T00:08:21;3.27;;;1.77;;
549;SDS011;20066;48.764;9.176;2023-07-30T00:10:50;3.60;;;2.00;;
549;SDS011;20066;48.764;9.176;2023-07-30T00:13:18;4.50;;;3.73;;
549;SDS011;20066;48.764;9.176;2023-07-30T00:15:46;6.60;;;1.90;;
549;SDS011;20066;48.764;9.176;2023-07-30T00:18:15;2.70;;;1.90;;
549;SDS011;20066;48.764;9.176;2023-07-30T00:20:44;2.63;;;2.47;;
549;SDS011;20066;48.764;9.176;2023-07-30T00:23:12;6.80;;;2.80;;
549;SDS011;20066;48.764;9.176;2023-07-30T00:25:40;3.07;;;1.90;;
549;SDS011;20066;48.764;9.176;2023-07-30T00:28:09;3.47;;;2.33;;
549;SDS011;20066;48.764;9.176;2023-07-30T00:30:37;3.40;;;2.30;;
549;SDS011;20066;48.764;9.176;2023-07-30T00:33:04;3.27;;;2.50;;
549;SDS011;20066;48.764;9.176;2023-07-30T00:35:32;4.37;;;2.50;;
549;SDS011;20066;48.764;9.176;2023-07-30T00:38:00;3.97;;;2.47;;
549;SDS011;20066;48.764;9.176;2023-07-30T00:40:28;5.47;;;2.57;;
549;SDS011;20066;48.764;9.176;2023-07-30T00:42:56;3.40;;;2.40;;
549;SDS011;20066;48.764;9.176;2023-07-30T00:45:25;6.90;;;2.30;;
549;SDS011;20066;48.764;9.176;2023-07-30T00:47:53;5.50;;;3.57;;
549;SDS011;20066;48.764;9.176;2023-07-30T00:50:20;10.40;;;3.03;;
549;SDS011;20066;48.764;9.176;2023-07-30T00:52:48;6.17;;;3.17;;
549;SDS011;20066;48.764;9.176;2023-07-30T00:55:16;6.20;;;3.30;;
549;SDS011;20066;48.764;9.176;2023-07-30T00:57:44;5.93;;;3.03;;
549;SDS011;20066;48.764;9.176;2023-07-30T01:00:13;5.00;;;3.60;;
549;SDS011;20066;48.764;9.176;2023-07-30T01:02:42;5.80;;;2.83;;
549;SDS011;20066;48.764;9.176;2023-07-30T01:05:10;7.10;;;4.20;;
549;SDS011;20066;48.764;9.176;2023-07-30T01:07:38;6.47;;;2.90;;
549;SDS011;20066;48.764;9.176;2023-07-30T01:10:06;4.93;;;3.30;;
549;SDS011;20066;48.764;9.176;2023-07-30T01:12:34;6.40;;;3.47;;
549;SDS011;20066;48.764;9.176;2023-07-30T01:15:03;5.63;;;3.60;;
549;SDS011;20066;48.764;9.176;2023-07-30T01:17:32;4.30;;;2.90;;
549;SDS011;20066;48.764;9.176;2023-07-30T01:20:02;5.13;;;3.20;;
549;SDS011;20066;48.764;9.176;2023-07-30T01:22:32;6.20;;;3.70;;
549;SDS011;20066;48.764;9.176;2023-07-30T01:24:59;5.60;;;3.10;;
549;SDS011;20066;48.764;9.176;2023-07-30T01:27:28;6.43;;;3.40;;
549;SDS011;20066;48.764;9.176;2023-07-30T01:29:58;5.60;;;3.50;;
549;SDS011;20066;48.764;9.176;2023-07-30T01:32:31;5.93;;;3.50;;
549;SDS011;20066;48.764;9.176;2023-07-30T01:35:00;5.47;;;3.23;;
549;SDS011;20066;48.764;9.176;2023-07-30T01:37:29;5.70;;;3.37;;
549;SDS011;20066;48.764;9.176;2023-07-30T01:39:58;7.00;;;3.67;;
549;SDS011;20066;48.764;9.176;2023-07-30T01:42:28;5.87;;;3.87;;
549;SDS011;20066;48.764;9.176;2023-07-30T01:44:56;6.83;;;4.50;;
549;SDS011;20066;48.764;9.176;2023-07-30T01:47:23;8.07;;;4.47;;
549;SDS011;20066;48.764;9.176;2023-07-30T01:49:51;9.73;;;4.30;;
549;SDS011;20066;48.764;9.176;2023-07-30T01:52:19;6.80;;;4.70;;
549;SDS011;20066;48.764;9.176;2023-07-30T01:54:47;6.63;;;4.30;;
549;SDS011;20066;48.764;9.176;2023-07-30T01:57:16;7.93;;;4.20;;
549;SDS011;20066;48.764;9.176;2023-07-30T01:59:44;7.87;;;4.17;;
549;SDS011;20066;48.764;9.176;2023-07-30T02:02:12;7.80;;;4.67;;
549;SDS011;20066;48.764;9.176;2023-07-30T02:04:40;6.57;;;3.80;;
549;SDS011;20066;48.764;9.176;2023-07-30T02:07:08;6.80;;;4.30;;
549;SDS011;20066;48.764;9.176;2023-07-30T02:09:36;6.17;;;3.90;;
549;SDS011;20066;48.764;9.176;2023-07-30T02:12:04;6.33;;;4.20;;
549;SDS011;20066;48.764;9.176;2023-07-30T02:14:34;6.23;;;4.33;;
549;SDS011;20066;48.764;9.176;2023-07-30T02:17:02;8.43;;;4.43;;
549;SDS011;20066;48.764;9.176;2023-07-30T02:19:30;7.53;;;4.70;;
549;SDS011;20066;48.764;9.176;2023-07-30T02:21:58;7.43;;;4.03;;
549;SDS011;20066;48.764;9.176;2023-07-30T02:24:26;5.43;;;3.83;;
549;SDS011;20066;48.764;9.176;2023-07-30T02:26:53;9.97;;;4.60;;
549;SDS011;20066;48.764;9.176;2023-07-30T02:29:21;7.80;;;4.70;;
549;SDS011;20066;48.764;9.176;2023-07-30T02:31:51;10.30;;;5.40;;
549;SDS011;20066;48.764;9.176;2023-07-30T02:34:18;6.87;;;5.37;;
549;SDS011;20066;48.764;9.176;2023-07-30T02:36:46;8.13;;;4.93;;
549;SDS011;20066;48.764;9.176;2023-07-30T02:39:15;8.10;;;5.20;;
549;SDS011;20066;48.764;9.176;2023-07-30T02:41:43;8.00;;;4.93;;
549;SDS011;20066;48.764;9.176;2023-07-30T02:44:10;12.67;;;5.53;;
549;SDS011;20066;48.764;9.176;2023-07-30T02:46:38;5.97;;;4.20;;
549;SDS011;20066;48.764;9.176;2023-07-30T02:49:07;6.17;;;4.60;;
549;SDS011;20066;48.764;9.176;2023-07-30T02:51:35;7.17;;;4.50;;
549;SDS011;20066;48.764;9.176;2023-07-30T02:54:04;8.67;;;4.40;;
549;SDS011;20066;48.764;9.176;2023-07-30T02:56:33;6.00;;;4.27;;
549;SDS011;20066;48.764;9.176;2023-07-30T02:59:01;5.80;;;4.10;;
549;SDS011;20066;48.764;9.176;2023-07-30T03:01:29;7.80;;;4.90;;
549;SDS011;20066;48.764;9.176;2023-07-30T03:03:56;6.07;;;4.50;;
549;SDS011;20066;48.764;9.176;2023-07-30T03:06:25;7.00;;;4.00;;
549;SDS011;20066;48.764;9.176;2023-07-30T03:08:53;5.43;;;3.83;;
549;SDS011;20066;48.764;9.176;2023-07-30T03:11:21;5.17;;;3.70;;
549;SDS011;20066;48.764;9.176;2023-07-30T03:13:49;4.50;;;3.33;;
549;SDS011;20066;48.764;9.176;2023-07-30T03:16:17;7.40;;;4.20;;
549;SDS011;20066;48.764;9.176;2023-07-30T03:18:45;9.03;;;4.13;;
549;SDS011;20066;48.764;9.176;2023-07-30T03:21:13;4.87;;;3.60;;
549;SDS011;20066;48.764;9.176;2023-07-30T03:23:42;5.07;;;3.50;;
549;SDS011;20066;48.764;9.176;2023-07-30T03:26:10;6.03;;;4.73;;
549;SDS011;20066;48.764;9.176;2023-07-30T03:28:38;6.27;;;4.03;;
549;SDS011;20066;48.764;9.176;2023-07-30T03:31:06;7.93;;;4.03;;
549;SDS011;20066;48.764;9.176;2023-07-30T03:33:34;5.07;;;3.87;;
549;SDS011;20066;48.764;9.176;2023-07-30T03:36:02;8.07;;;4.17;;
549;SDS011;20066;48.764;9.176;2023-07-30T03:38:31;7.00;;;4.67;;
549;SDS011;20066;48.764;9.176;2023-07-30T03:41:00;7.40;;;3.70;;
549;SDS011;20066;48.764;9.176;2023-07-30T03:43:28;7.40;;;4.30;;
549;SDS011;20066;48.764;9.176;2023-07-30T03:45:55;5.47;;;3.97;;
549;SDS011;20066;48.764;9.176;2023-07-30T03:48:23;7.07;;;3.70;;
549;SDS011;20066;48.764;9.176;2023-07-30T03:50:51;5.70;;;4.03;;
549;SDS011;20066;48.764;9.176;2023-07-30T03:53:19;11.97;;;4.33;;
549;SDS011;20066;48.764;9.176;2023-07-30T03:55:47;6.10;;;3.90;;
549;SDS011;20066;48.764;9.176;2023-07-30T03:58:17;4.80;;;3.77;;
549;SDS011;20066;48.764;9.176;2023-07-30T04:00:44;8.60;;;5.10;;
549;SDS011;20066;48.764;9.176;2023-07-30T04:03:12;10.30;;;4.33;;
549;SDS011;20066;48.764;9.176;2023-07-30T04:05:40;11.00;;;4.37;;
549;SDS011;20066;48.764;9.176;2023-07-30T04:08:08;6.97;;;3.73;;
549;SDS011;20066;48.764;9.176;2023-07-30T04:10:36;5.67;;;3.80;;
549;SDS011;20066;48.764;9.176;2023-07-30T04:13:03;8.47;;;3.97;;
549;SDS011;20066;48.764;9.176;2023-07-30T04:15:33;5.60;;;4.10;;
549;SDS011;20066;48.764;9.176;2023-07-30T04:18:00;4.80;;;3.70;;
549;SDS011;20066;48.764;9.176;2023-07-30T04:20:28;8.07;;;4.10;;
549;SDS011;20066;48.764;9.176;2023-07-30T04:22:56;5.97;;;3.60;;
549;SDS011;20066;48.764;9.176;2023-07-30T04:25:24;10.70;;;3.63;;
549;SDS011;20066;48.764;9.176;2023-07-30T04:27:52;5.53;;;3.13;;
549;SDS011;20066;48.764;9.176;2023-07-30T04:30:20;5.87;;;4.07;;
549;SDS011;20066;48.764;9.176;2023-07-30T04:32:50;5.33;;;3.30;;
549;SDS011;20066;48.764;9.176;2023-07-30T04:35:17;6.53;;;3.80;;
549;SDS011;20066;48.764;9.176;2023-07-30T04:37:45;5.10;;;3.23;;
549;SDS011;20066;48.764;9.176;2023-07-30T04:40:13;6.13;;;3.50;;
549;SDS011;20066;48.764;9.176;2023-07-30T04:42:44;5.90;;;3.20;;
549;SDS011;20066;48.764;9.176;2023-07-30T04:45:12;5.87;;;3.17;;
549;SDS011;20066;48.764;9.176;2023-07-30T04:47:40;7.20;;;3.17;;
549;SDS011;20066;48.764;9.176;2023-07-30T04:50:09;4.40;;;3.53;;
549;SDS011;20066;48.764;9.176;2023-07-30T04:52:37;7.50;;;3.37;;
549;SDS011;20066;48.764;9.176;2023-07-30T04:55:06;8.00;;;3.43;;
549;SDS011;20066;48.764;9.176;2023-07-30T04:57:34;8.50;;;3.90;;
549;SDS011;20066;48.764;9.176;2023-07-30T05:00:02;5.80;;;3.50;;
549;SDS011;20066;48.764;9.176;2023-07-30T05:02:30;6.57;;;4.00;;
549;SDS011;20066;48.764;9.176;2023-07-30T05:04:58;5.03;;;3.70;;
549;SDS011;20066;48.764;9.176;2023-07-30T05:07:27;5.63;;;3.50;;
549;SDS011;20066;48.764;9.176;2023-07-30T05:09:55;5.23;;;3.70;;
549;SDS011;20066;48.764;9.176;2023-07-30T05:12:23;6.00;;;4.20;;
549;SDS011;20066;48.764;9.176;2023-07-30T05:14:51;5.40;;;3.53;;
549;SDS011;20066;48.764;9.176;2023-07-30T05:17:19;7.50;;;4.20;;
549;SDS011;20066;48.764;9.176;2023-07-30T05:19:47;5.80;;;3.73;;
549;SDS011;20066;48.764;9.176;2023-07-30T05:22:15;5.70;;;4.07;;
549;SDS011;20066;48.764;9.176;2023-07-30T05:24:44;6.00;;;4.27;;
549;SDS011;20066;48.764;9.176;2023-07-30T05:27:12;5.47;;;4.00;;
549;SDS011;20066;48.764;9.176;2023-07-30T05:29:40;5.97;;;3.80;;
549;SDS011;20066;48.764;9.176;2023-07-30T05:32:08;4.60;;;3.30;;
549;SDS011;20066;48.764;9.176;2023-07-30T05:34:36;5.30;;;3.40;;
549;SDS011;20066;48.764;9.176;2023-07-30T05:37:04;6.57;;;3.80;;
549;SDS011;20066;48.764;9.176;2023-07-30T05:39:32;7.00;;;3.83;;
549;SDS011;20066;48.764;9.176;2023-07-30T05:42:01;8.10;;;4.13;;
549;SDS011;20066;48.764;9.176;2023-07-30T05:44:29;6.23;;;3.63;;
549;SDS011;20066;48.764;9.176;2023-07-30T05:46:57;9.30;;;3.27;;
549;SDS011;20066;48.764;9.176;2023-07-30T05:49:25;6.33;;;3.97;;
549;SDS011;20066;48.764;9.176;2023-07-30T05:51:53;5.80;;;3.50;;
549;SDS011;20066;48.764;9.176;2023-07-30T05:54:20;5.40;;;3.60;;
549;SDS011;20066;48.764;9.176;2023-07-30T05:56:49;7.00;;;4.00;;
549;SDS011;20066;48.764;9.176;2023-07-30T05:59:18;6.13;;;3.93;;
549;SDS011;20066;48.764;9.176;2023-07-30T06:01:49;4.97;;;3.63;;
549;SDS011;20066;48.764;9.176;2023-07-30T06:04:16;7.17;;;4.27;;
549;SDS011;20066;48.764;9.176;2023-07-30T06:06:44;5.60;;;3.90;;
549;SDS011;20066;48.764;9.176;2023-07-30T06:09:12;7.53;;;4.60;;
549;SDS011;20066;48.764;9.176;2023-07-30T06:11:40;6.90;;;4.00;;
549;SDS011;20066;48.764;9.176;2023-07-30T06:14:07;6.43;;;4.70;;
549;SDS011;20066;48.764;9.176;2023-07-30T06:16:37;6.00;;;3.83;;
549;SDS011;20066;48.764;9.176;2023-07-30T06:19:04;8.20;;;5.10;;
549;SDS011;20066;48.764;9.176;2023-07-30T06:21:32;6.10;;;4.00;;
549;SDS011;20066;48.764;9.176;2023-07-30T06:24:00;9.93;;;3.83;;
549;SDS011;20066;48.764;9.176;2023-07-30T06:26:28;4.70;;;3.33;;
549;SDS011;20066;48.764;9.176;2023-07-30T06:28:56;4.33;;;3.07;;
549;SDS011;20066;48.764;9.176;2023-07-30T06:31:24;5.30;;;3.77;;
549;SDS011;20066;48.764;9.176;2023-07-30T06:33:55;7.60;;;3.70;;
549;SDS011;20066;48.764;9.176;2023-07-30T06:36:23;6.60;;;3.93;;
549;SDS011;20066;48.764;9.176;2023-07-30T06:38:51;6.57;;;3.13;;
549;SDS011;20066;48.764;9.176;2023-07-30T06:41:19;4.60;;;3.43;;
549;SDS011;20066;48.764;9.176;2023-07-30T06:43:47;4.50;;;3.13;;
549;SDS011;20066;48.764;9.176;2023-07-30T06:46:15;5.23;;;3.40;;
549;SDS011;20066;48.764;9.176;2023-07-30T06:48:43;4.80;;;2.97;;
549;SDS011;20066;48.764;9.176;2023-07-30T06:51:13;4.10;;;3.37;;
549;SDS011;20066;48.764;9.176;2023-07-30T06:53:41;3.60;;;2.60;;
549;SDS011;20066;48.764;9.176;2023-07-30T06:56:09;4.93;;;3.13;;
549;SDS011;20066;48.764;9.176;2023-07-30T06:58:37;5.13;;;2.30;;
549;SDS011;20066;48.764;9.176;2023-07-30T07:01:06;3.60;;;2.40;;
549;SDS011;20066;48.764;9.176;2023-07-30T07:03:34;3.37;;;2.43;;
549;SDS011;20066;48.764;9.176;2023-07-30T07:06:02;7.17;;;2.40;;
549;SDS011;20066;48.764;9.176;2023-07-30T07:08:33;3.50;;;2.40;;
549;SDS011;20066;48.764;9.176;2023-07-30T07:11:01;6.63;;;2.93;;
549;SDS011;20066;48.764;9.176;2023-07-30T07:13:29;8.00;;;3.00;;
549;SDS011;20066;48.764;9.176;2023-07-30T07:15:56;5.70;;;2.67;;
549;SDS011;20066;48.764;9.176;2023-07-30T07:18:24;5.90;;;2.67;;
549;SDS011;20066;48.764;9.176;2023-07-30T07:20:53;4.40;;;2.47;;
549;SDS011;20066;48.764;9.176;2023-07-30T07:23:21;4.40;;;3.13;;
549;SDS011;20066;48.764;9.176;2023-07-30T07:25:51;4.13;;;2.30;;
549;SDS011;20066;48.764;9.176;2023-07-30T07:28:19;3.80;;;2.40;;
549;SDS011;20066;48.764;9.176;2023-07-30T07:30:47;4.30;;;2.83;;
549;SDS011;20066;48.764;9.176;2023-07-30T07:33:15;4.57;;;2.83;;
549;SDS011;20066;48.764;9.176;2023-07-30T07:35:43;3.83;;;2.50;;
549;SDS011;20066;48.764;9.176;2023-07-30T07:38:10;4.00;;;3.03;;
549;SDS011;20066;48.764;9.176;2023-07-30T07:40:38;4.80;;;2.83;;
549;SDS011;20066;48.764;9.176;2023-07-30T07:43:08;3.80;;;2.40;;
549;SDS011;20066;48.764;9.176;2023-07-30T07:45:36;2.73;;;2.30;;
549;SDS011;20066;48.764;9.176;2023-07-30T07:48:04;8.73;;;2.80;;
549;SDS011;20066;48.764;9.176;2023-07-30T07:50:32;3.00;;;2.30;;
549;SDS011;20066;48.764;9.176;2023-07-30T07:53:00;2.50;;;2.07;;
549;SDS011;20066;48.764;9.176;2023-07-30T07:55:28;3.13;;;2.40;;
549;SDS011;20066;48.764;9.176;2023-07-30T07:57:55;3.87;;;2.70;;
549;SDS011;20066;48.764;9.176;2023-07-30T08:00:25;3.30;;;2.40;;
549;SDS011;20066;48.764;9.176;2023-07-30T08:02:52;5.93;;;2.40;;
549;SDS011;20066;48.764;9.176;2023-07-30T08:05:20;3.70;;;2.40;;
549;SDS011;20066;48.764;9.176;2023-07-30T08:07:50;3.73;;;2.23;;
549;SDS011;20066;48.764;9.176;2023-07-30T08:10:19;3.27;;;2.37;;
549;SDS011;20066;48.764;9.176;2023-07-30T08:12:47;3.03;;;2.00;;
549;SDS011;20066;48.764;9.176;2023-07-30T08:15:15;3.97;;;2.70;;
549;SDS011;20066;48.764;9.176;2023-07-30T08:17:45;2.83;;;2.00;;
549;SDS011;20066;48.764;9.176;2023-07-30T08:20:13;4.90;;;3.03;;
549;SDS011;20066;48.764;9.176;2023-07-30T08:22:41;3.00;;;2.20;;
549;SDS011;20066;48.764;9.176;2023-07-30T08:25:09;3.17;;;2.30;;
549;SDS011;20066;48.764;9.176;2023-07-30T08:27:37;3.90;;;2.43;;
549;SDS011;20066;48.764;9.176;2023-07-30T08:30:06;4.13;;;2.83;;
549;SDS011;20066;48.764;9.176;2023-07-30T08:32:35;4.03;;;2.17;;
549;SDS011;20066;48.764;9.176;2023-07-30T08:35:08;3.20;;;2.10;;
549;SDS011;20066;48.764;9.176;2023-07-30T08:37:36;4.10;;;2.40;;
549;SDS011;20066;48.764;9.176;2023-07-30T08:40:05;4.47;;;2.33;;
549;SDS011;20066;48.764;9.176;2023-07-30T08:42:33;5.80;;;2.73;;
549;SDS011;20066;48.764;9.176;2023-07-30T08:45:01;3.27;;;2.03;;
549;SDS011;20066;48.764;9.176;2023-07-30T08:47:33;3.63;;;2.23;;
549;SDS011;20066;48.764;9.176;2023-07-30T08:50:02;2.73;;;1.73;;
549;SDS011;20066;48.764;9.176;2023-07-30T08:52:32;5.80;;;2.60;;
549;SDS011;20066;48.764;9.176;2023-07-30T08:55:02;4.13;;;2.50;;
549;SDS011;20066;48.764;9.176;2023-07-30T08:57:31;4.53;;;2.23;;
549;SDS011;20066;48.764;9.176;2023-07-30T09:00:00;3.13;;;2.10;;
549;SDS011;20066;48.764;9.176;2023-07-30T09:02:33;5.30;;;1.90;;
549;SDS011;20066;48.764;9.176;2023-07-30T09:05:05;3.40;;;2.33;;
549;SDS011;20066;48.764;9.176;2023-07-30T09:07:36;4.90;;;2.47;;
549;SDS011;20066;48.764;9.176;2023-07-30T09:10:06;3.87;;;2.27;;
549;SDS011;20066;48.764;9.176;2023-07-30T09:12:35;6.10;;;2.53;;
549;SDS011;20066;48.764;9.176;2023-07-30T09:15:03;3.40;;;2.17;;
549;SDS011;20066;48.764;9.176;2023-07-30T09:17:33;3.70;;;2.20;;
549;SDS011;20066;48.764;9.176;2023-07-30T09:20:02;4.10;;;2.10;;
549;SDS011;20066;48.764;9.176;2023-07-30T09:22:32;3.63;;;2.63;;
549;SDS011;20066;48.764;9.176;2023-07-30T09:25:04;6.00;;;2.57;;
549;SDS011;20066;48.764;9.176;2023-07-30T09:27:33;5.00;;;2.07;;
549;SDS011;20066;48.764;9.176;2023-07-30T09:30:02;4.60;;;2.80;;
549;SDS011;20066;48.764;9.176;2023-07-30T09:32:33;4.13;;;2.47;;
549;SDS011;20066;48.764;9.176;2023-07-30T09:35:04;6.40;;;2.60;;
549;SDS011;20066;48.764;9.176;2023-07-30T09:37:35;3.40;;;2.03;;
549;SDS011;20066;48.764;9.176;2023-07-30T09:40:07;4.17;;;2.67;;
549;SDS011;20066;48.764;9.176;2023-07-30T09:42:36;5.70;;;2.30;;
549;SDS011;20066;48.764;9.176;2023-07-30T09:45:09;3.77;;;2.40;;
549;SDS011;20066;48.764;9.176;2023-07-30T09:47:48;3.70;;;2.30;;
549;SDS011;20066;48.764;9.176;2023-07-30T09:50:16;3.90;;;2.73;;
549;SDS011;20066;48.764;9.176;2023-07-30T09:52:44;4.93;;;2.50;;
549;SDS011;20066;48.764;9.176;2023-07-30T09:55:15;7.93;;;2.93;;
549;SDS011;20066;48.764;9.176;2023-07-30T09:57:44;4.83;;;3.03;;
549;SDS011;20066;48.764;9.176;2023-07-30T10:00:12;3.90;;;2.90;;
549;SDS011;20066;48.764;9.176;2023-07-30T10:02:41;5.97;;;2.50;;
549;SDS011;20066;48.764;9.176;2023-07-30T10:05:15;6.03;;;2.70;;
549;SDS011;20066;48.764;9.176;2023-07-30T10:07:44;4.40;;;2.47;;
549;SDS011;20066;48.764;9.176;2023-07-30T10:10:18;5.00;;;2.90;;
549;SDS011;20066;48.764;9.176;2023-07-30T10:12:49;3.83;;;2.57;;
549;SDS011;20066;48.764;9.176;2023-07-30T10:15:19;4.27;;;2.50;;
549;SDS011;20066;48.764;9.176;2023-07-30T10:17:50;4.40;;;2.50;;
549;SDS011;20066;48.764;9.176;2023-07-30T10:20:23;4.73;;;3.30;;
549;SDS011;20066;48.764;9.176;2023-07-30T10:22:53;4.10;;;2.50;;
549;SDS011;20066;48.764;9.176;2023-07-30T10:25:27;4.93;;;2.60;;
549;SDS011;20066;48.764;9.176;2023-07-30T10:27:57;5.37;;;3.00;;
549;SDS011;20066;48.764;9.176;2023-07-30T10:30:29;6.27;;;3.30;;
549;SDS011;20066;48.764;9.176;2023-07-30T10:33:02;7.10;;;2.50;;
549;SDS011;20066;48.764;9.176;2023-07-30T10:35:40;4.47;;;2.60;;
549;SDS011;20066;48.764;9.176;2023-07-30T10:38:13;5.87;;;2.43;;
549;SDS011;20066;48.764;9.176;2023-07-30T10:41:00;3.73;;;2.97;;
549;SDS011;20066;48.764;9.176;2023-07-30T10:43:30;5.80;;;2.60;;
549;SDS011;20066;48.764;9.176;2023-07-30T10:45:58;3.67;;;2.30;;
549;SDS011;20066;48.764;9.176;2023-07-30T10:48:30;5.53;;;2.37;;
549;SDS011;20066;48.764;9.176;2023-07-30T10:51:02;5.03;;;2.40;;
549;SDS011;20066;48.764;9.176;2023-07-30T10:53:31;3.50;;;2.50;;
549;SDS011;20066;48.764;9.176;2023-07-30T10:56:01;4.63;;;2.77;;
549;SDS011;20066;48.764;9.176;2023-07-30T10:58:30;4.60;;;2.77;;
549;SDS011;20066;48.764;9.176;2023-07-30T11:01:00;5.17;;;2.90;;
549;SDS011;20066;48.764;9.176;2023-07-30T11:03:29;4.60;;;3.20;;
549;SDS011;20066;48.764;9.176;2023-07-30T11:05:58;4.00;;;2.77;;
549;SDS011;20066;48.764;9.176;2023-07-30T11:08:34;6.63;;;2.50;;
549;SDS011;20066;48.764;9.176;2023-07-30T11:11:05;3.93;;;2.30;;
549;SDS011;20066;48.764;9.176;2023-07-30T11:13:35;4.63;;;2.83;;
549;SDS011;20066;48.764;9.176;2023-07-30T11:16:08;4.83;;;3.17;;
549;SDS011;20066;48.764;9.176;2023-07-30T11:18:42;7.03;;;3.03;;
549;SDS011;20066;48.764;9.176;2023-07-30T11:21:20;4.20;;;2.80;;
549;SDS011;20066;48.764;9.176;2023-07-30T11:23:50;4.00;;;2.70;;
549;SDS011;20066;48.764;9.176;2023-07-30T11:26:19;3.83;;;2.30;;
549;SDS011;20066;48.764;9.176;2023-07-30T11:28:47;7.97;;;2.83;;
549;SDS011;20066;48.764;9.176;2023-07-30T11:31:16;8.10;;;2.40;;
549;SDS011;20066;48.764;9.176;2023-07-30T11:33:47;6.07;;;2.50;;
549;SDS011;20066;48.764;9.176;2023-07-30T11:36:18;4.60;;;2.60;;
549;SDS011;20066;48.764;9.176;2023-07-30T11:38:47;4.80;;;2.57;;
549;SDS011;20066;48.764;9.176;2023-07-30T11:41:16;4.00;;;2.47;;
549;SDS011;20066;48.764;9.176;2023-07-30T11:43:45;4.53;;;2.90;;
549;SDS011;20066;48.764;9.176;2023-07-30T11:46:14;4.93;;;2.47;;
549;SDS011;20066;48.764;9.176;2023-07-30T11:48:44;6.87;;;2.97;;
549;SDS011;20066;48.764;9.176;2023-07-30T11:51:19;4.23;;;2.50;;
549;SDS011;20066;48.764;9.176;2023-07-30T11:53:49;4.47;;;2.67;;
549;SDS011;20066;48.764;9.176;2023-07-30T11:56:22;4.30;;;2.00;;
549;SDS011;20066;48.764;9.176;2023-07-30T11:58:53;5.10;;;2.30;;
549;SDS011;20066;48.764;9.176;2023-07-30T12:01:23;5.67;;;2.60;;
549;SDS011;20066;48.764;9.176;2023-07-30T12:03:53;7.30;;;2.77;;
549;SDS011;20066;48.764;9.176;2023-07-30T12:06:22;6.13;;;2.50;;
549;SDS011;20066;48.764;9.176;2023-07-30T12:08:50;5.43;;;2.50;;
549;SDS011;20066;48.764;9.176;2023-07-30T12:11:18;5.13;;;2.70;;
549;SDS011;20066;48.764;9.176;2023-07-30T12:13:47;5.03;;;2.70;;
549;SDS011;20066;48.764;9.176;2023-07-30T12:16:18;5.37;;;2.80;;
549;SDS011;20066;48.764;9.176;2023-07-30T12:18:47;6.50;;;3.30;;
549;SDS011;20066;48.764;9.176;2023-07-30T12:21:15;4.10;;;2.57;;
549;SDS011;20066;48.764;9.176;2023-07-30T12:23:43;6.17;;;2.87;;
549;SDS011;20066;48.764;9.176;2023-07-30T12:26:11;8.70;;;3.70;;
549;SDS011;20066;48.764;9.176;2023-07-30T12:28:39;5.17;;;2.60;;
549;SDS011;20066;48.764;9.176;2023-07-30T12:31:06;5.83;;;2.80;;
549;SDS011;20066;48.764;9.176;2023-07-30T12:33:36;7.67;;;2.97;;
549;SDS011;20066;48.764;9.176;2023-07-30T12:36:04;4.77;;;2.63;;
549;SDS011;20066;48.764;9.176;2023-07-30T12:38:32;4.80;;;2.57;;
549;SDS011;20066;48.764;9.176;2023-07-30T12:41:00;7.40;;;2.63;;
549;SDS011;20066;48.764;9.176;2023-07-30T12:43:28;5.17;;;2.60;;
549;SDS011;20066;48.764;9.176;2023-07-30T12:45:56;4.80;;;2.67;;
549;SDS011;20066;48.764;9.176;2023-07-30T12:48:24;7.17;;;3.00;;
549;SDS011;20066;48.764;9.176;2023-07-30T12:50:53;5.70;;;2.40;;
549;SDS011;20066;48.764;9.176;2023-07-30T12:53:23;4.63;;;2.30;;
549;SDS011;20066;48.764;9.176;2023-07-30T12:55:51;5.20;;;2.23;;
549;SDS011;20066;48.764;9.176;2023-07-30T12:58:20;4.03;;;2.30;;
549;SDS011;20066;48.764;9.176;2023-07-30T13:00:48;5.17;;;2.40;;
549;SDS011;20066;48.764;9.176;2023-07-30T13:03:15;4.43;;;2.50;;
549;SDS011;20066;48.764;9.176;2023-07-30T13:05:43;5.03;;;2.20;;
549;SDS011;20066;48.764;9.176;2023-07-30T13:08:13;5.20;;;2.90;;
549;SDS011;20066;48.764;9.176;2023-07-30T13:10:41;4.27;;;2.90;;
549;SDS011;20066;48.764;9.176;2023-07-30T13:13:08;4.17;;;2.33;;
549;SDS011;20066;48.764;9.176;2023-07-30T13:15:36;3.80;;;2.43;;
549;SDS011;20066;48.764;9.176;2023-07-30T13:18:04;5.10;;;2.70;;
549;SDS011;20066;48.764;9.176;2023-07-30T13:20:32;4.63;;;2.50;;
549;SDS011;20066;48.764;9.176;2023-07-30T13:23:00;9.83;;;3.00;;
549;SDS011;20066;48.764;9.176;2023-07-30T13:25:29;4.20;;;2.33;;
549;SDS011;20066;48.764;9.176;2023-07-30T13:27:57;4.33;;;2.37;;
549;SDS011;20066;48.764;9.176;2023-07-30T13:30:25;4.70;;;2.10;;
549;SDS011;20066;48.764;9.176;2023-07-30T13:32:54;5.63;;;2.47;;
549;SDS011;20066;48.764;9.176;2023-07-30T13:35:23;6.10;;;2.93;;
549;SDS011;20066;48.764;9.176;2023-07-30T13:37:50;4.90;;;2.50;;
549;SDS011;20066;48.764;9.176;2023-07-30T13:40:18;3.13;;;2.10;;
549;SDS011;20066;48.764;9.176;2023-07-30T13:42:48;3.43;;;2.37;;
549;SDS011;20066;48.764;9.176;2023-07-30T13:45:16;5.53;;;2.40;;
549;SDS011;20066;48.764;9.176;2023-07-30T13:47:44;5.10;;;2.00;;
549;SDS011;20066;48.764;9.176;2023-07-30T13:50:12;3.63;;;2.00;;
549;SDS011;20066;48.764;9.176;2023-07-30T13:52:40;6.70;;;2.67;;
549;SDS011;20066;48.764;9.176;2023-07-30T13:55:08;4.10;;;2.20;;
549;SDS011;20066;48.764;9.176;2023-07-30T13:57:35;3.60;;;2.30;;
549;SDS011;20066;48.764;9.176;2023-07-30T14:00:06;7.67;;;2.70;;
549;SDS011;20066;48.764;9.176;2023-07-30T14:02:35;5.63;;;2.37;;
549;SDS011;20066;48.764;9.176;2023-07-30T14:05:04;5.77;;;2.07;;
549;SDS011;20066;48.764;9.176;2023-07-30T14:07:32;4.20;;;2.40;;
549;SDS011;20066;48.764;9.176;2023-07-30T14:10:02;4.37;;;2.00;;
549;SDS011;20066;48.764;9.176;2023-07-30T14:12:30;5.07;;;2.40;;
549;SDS011;20066;48.764;9.176;2023-07-30T14:14:59;9.33;;;3.00;;
549;SDS011;20066;48.764;9.176;2023-07-30T14:17:29;6.07;;;2.30;;
549;SDS011;20066;48.764;9.176;2023-07-30T14:19:57;7.07;;;2.20;;
549;SDS011;20066;48.764;9.176;2023-07-30T14:22:25;3.87;;;2.20;;
549;SDS011;20066;48.764;9.176;2023-07-30T14:24:53;4.90;;;2.20;;
549;SDS011;20066;48.764;9.176;2023-07-30T14:27:22;5.43;;;1.90;;
549;SDS011;20066;48.764;9.176;2023-07-30T14:29:51;4.93;;;2.60;;
549;SDS011;20066;48.764;9.176;2023-07-30T14:32:19;6.00;;;2.30;;
549;SDS011;20066;48.764;9.176;2023-07-30T14:34:49;5.17;;;2.13;;
549;SDS011;20066;48.764;9.176;2023-07-30T14:37:16;4.30;;;1.90;;
549;SDS011;20066;48.764;9.176;2023-07-30T14:39:45;4.37;;;2.13;;
549;SDS011;20066;48.764;9.176;2023-07-30T14:42:13;4.00;;;2.10;;
549;SDS011;20066;48.764;9.176;2023-07-30T14:44:41;5.83;;;2.33;;
549;SDS011;20066;48.764;9.176;2023-07-30T14:47:10;5.27;;;2.20;;
549;SDS011;20066;48.764;9.176;2023-07-30T14:49:39;4.30;;;2.00;;
549;SDS011;20066;48.764;9.176;2023-07-30T14:52:08;5.60;;;2.27;;
549;SDS011;20066;48.764;9.176;2023-07-30T14:54:37;5.03;;;2.13;;
549;SDS011;20066;48.764;9.176;2023-07-30T14:57:05;5.67;;;1.80;;
549;SDS011;20066;48.764;9.176;2023-07-30T14:59:33;12.83;;;5.53;;
549;SDS011;20066;48.764;9.176;2023-07-30T15:02:02;4.73;;;2.20;;
549;SDS011;20066;48.764;9.176;2023-07-30T15:04:30;5.93;;;2.43;;
549;SDS011;20066;48.764;9.176;2023-07-30T15:06:58;7.00;;;2.07;;
549;SDS011;20066;48.764;9.176;2023-07-30T15:09:27;4.27;;;1.90;;
549;SDS011;20066;48.764;9.176;2023-07-30T15:12:00;5.90;;;2.10;;
549;SDS011;20066;48.764;9.176;2023-07-30T15:14:28;4.23;;;2.10;;
549;SDS011;20066;48.764;9.176;2023-07-30T15:16:58;4.57;;;2.10;;
549;SDS011;20066;48.764;9.176;2023-07-30T15:19:27;7.10;;;2.43;;
549;SDS011;20066;48.764;9.176;2023-07-30T15:21:55;5.90;;;2.40;;
549;SDS011;20066;48.764;9.176;2023-07-30T15:24:23;4.03;;;2.03;;